sensor_id;sensor_type;location;lat;lon;timestamp;temperature;humidity
52471;DHT22;38382;53.160;7.026;2024-02-14T00:02:11;6.00;99.90
52471;DHT22;38382;53.160;7.026;2024-02-14T00:04:37;6.30;99.90
52471;DHT22;38382;53.160;7.026;2024-02-14T00:07:04;6.10;99.90
52471;DHT22;38382;53.160;7.026;2024-02-14T00:09:31;6.00;99.90
52471;DHT22;38382;53.160;7.026;2024-02-14T00:11:56;6.20;99.90
52471;DHT22;38382;53.160;7.026;2024-02-14T00:14:22;6.10;99.90
52471;DHT22;38382;53.160;7.026;2024-02-14T00:16:48;6.10;99.90
52471;DHT22;38382;53.160;7.026;2024-02-14T00:19:13;6.00;99.90
52471;DHT22;38382;53.160;7.026;2024-02-14T00:21:39;6.10;99.90
52471;DHT22;38382;53.160;7.026;2024-02-14T00:24:05;6.30;99.90
52471;DHT22;38382;53.160;7.026;2024-02-14T00:26:31;6.20;99.90
52471;DHT22;38382;53.160;7.026;2024-02-14T00:28:57;6.00;99.90
52471;DHT22;38382;53.160;7.026;2024-02-14T00:31:23;6.30;99.90
52471;DHT22;38382;53.160;7.026;2024-02-14T00:33:48;6.20;99.90
52471;DHT22;38382;53.160;7.026;2024-02-14T00:36:14;6.20;99.90
52471;DHT22;38382;53.160;7.026;2024-02-14T00:38:40;6.20;99.90
52471;DHT22;38382;53.160;7.026;2024-02-14T00:41:06;6.30;99.90
52471;DHT22;38382;53.160;7.026;2024-02-14T00:43:31;6.10;99.90
52471;DHT22;38382;53.160;7.026;2024-02-14T00:45:57;6.30;99.90
52471;DHT22;38382;53.160;7.026;2024-02-14T00:48:23;6.10;99.90
52471;DHT22;38382;53.160;7.026;2024-02-14T00:50:49;6.30;99.90
52471;DHT22;38382;53.160;7.026;2024-02-14T00:53:15;6.20;99.90
52471;DHT22;38382;53.160;7.026;2024-02-14T00:55:41;6.10;99.90
52471;DHT22;38382;53.160;7.026;2024-02-14T00:58:06;6.20;99.90
52471;DHT22;38382;53.160;7.026;2024-02-14T01:00:32;6.20;99.90
52471;DHT22;38382;53.160;7.026;2024-02-14T01:02:58;6.20;99.90
52471;DHT22;38382;53.160;7.026;2024-02-14T01:05:24;6.20;99.90
52471;DHT22;38382;53.160;7.026;2024-02-14T01:07:50;6.20;99.90
52471;DHT22;38382;53.160;7.026;2024-02-14T01:10:16;6.20;99.90
52471;DHT22;38382;53.160;7.026;2024-02-14T01:12:43;6.20;99.90
52471;DHT22;38382;53.160;7.026;2024-02-14T01:15:09;6.20;99.90
52471;DHT22;38382;53.160;7.026;2024-02-14T01:17:35;6.30;99.90
52471;DHT22;38382;53.160;7.026;2024-02-14T01:20:02;6.20;99.90
52471;DHT22;38382;53.160;7.026;2024-02-14T01:22:28;6.20;99.90
52471;DHT22;38382;53.160;7.026;2024-02-14T01:24:54;6.10;99.90
52471;DHT22;38382;53.160;7.026;2024-02-14T01:27:20;6.20;99.90
52471;DHT22;38382;53.160;7.026;2024-02-14T01:29:48;6.20;99.90
52471;DHT22;38382;53.160;7.026;2024-02-14T01:32:14;6.20;99.90
52471;DHT22;38382;53.160;7.026;2024-02-14T01:34:39;6.20;99.90
52471;DHT22;38382;53.160;7.026;2024-02-14T01:37:06;6.30;99.90
52471;DHT22;38382;53.160;7.026;2024-02-14T01:39:32;6.20;99.90
52471;DHT22;38382;53.160;7.026;2024-02-14T01:41:58;6.30;99.90
52471;DHT22;38382;53.160;7.026;2024-02-14T01:44:23;6.30;99.90
52471;DHT22;38382;53.160;7.026;2024-02-14T01:46:49;6.30;99.90
52471;DHT22;38382;53.160;7.026;2024-02-14T01:49:16;6.30;99.90
52471;DHT22;38382;53.160;7.026;2024-02-14T01:51:43;6.30;99.90
52471;DHT22;38382;53.160;7.026;2024-02-14T01:54:12;6.30;99.90
52471;DHT22;38382;53.160;7.026;2024-02-14T01:56:39;6.40;99.90
52471;DHT22;38382;53.160;7.026;2024-02-14T01:59:05;6.40;99.90
52471;DHT22;38382;53.160;7.026;2024-02-14T02:01:34;6.40;99.90
52471;DHT22;38382;53.160;7.026;2024-02-14T02:04:01;6.30;99.90
52471;DHT22;38382;53.160;7.026;2024-02-14T02:06:27;6.50;99.90
52471;DHT22;38382;53.160;7.026;2024-02-14T02:08:54;6.40;99.90
52471;DHT22;38382;53.160;7.026;2024-02-14T02:11:19;6.40;99.90
52471;DHT22;38382;53.160;7.026;2024-02-14T02:13:45;6.40;99.90
52471;DHT22;38382;53.160;7.026;2024-02-14T02:16:11;6.50;99.90
52471;DHT22;38382;53.160;7.026;2024-02-14T02:18:38;6.50;99.90
52471;DHT22;38382;53.160;7.026;2024-02-14T02:21:04;6.60;99.90
52471;DHT22;38382;53.160;7.026;2024-02-14T02:23:34;6.60;99.90
52471;DHT22;38382;53.160;7.026;2024-02-14T02:26:00;6.50;99.90
52471;DHT22;38382;53.160;7.026;2024-02-14T02:28:26;6.70;99.90
52471;DHT22;38382;53.160;7.026;2024-02-14T02:30:51;6.50;99.90
52471;DHT22;38382;53.160;7.026;2024-02-14T02:33:19;6.80;99.90
52471;DHT22;38382;53.160;7.026;2024-02-14T02:35:44;6.60;99.90
52471;DHT22;38382;53.160;7.026;2024-02-14T02:38:11;6.60;99.90
52471;DHT22;38382;53.160;7.026;2024-02-14T02:40:37;6.60;99.90
52471;DHT22;38382;53.160;7.026;2024-02-14T02:43:03;6.70;99.90
52471;DHT22;38382;53.160;7.026;2024-02-14T02:45:28;6.70;99.90
52471;DHT22;38382;53.160;7.026;2024-02-14T02:47:54;6.70;99.90
52471;DHT22;38382;53.160;7.026;2024-02-14T02:50:21;6.70;99.90
52471;DHT22;38382;53.160;7.026;2024-02-14T02:52:47;6.70;99.90
52471;DHT22;38382;53.160;7.026;2024-02-14T02:55:13;6.80;99.90
52471;DHT22;38382;53.160;7.026;2024-02-14T02:57:41;6.90;99.90
52471;DHT22;38382;53.160;7.026;2024-02-14T03:00:07;6.70;99.90
52471;DHT22;38382;53.160;7.026;2024-02-14T03:02:33;6.90;99.90
52471;DHT22;38382;53.160;7.026;2024-02-14T03:04:59;6.80;99.90
52471;DHT22;38382;53.160;7.026;2024-02-14T03:07:26;6.90;99.90
52471;DHT22;38382;53.160;7.026;2024-02-14T03:09:52;6.90;99.90
52471;DHT22;38382;53.160;7.026;2024-02-14T03:12:17;6.80;99.90
52471;DHT22;38382;53.160;7.026;2024-02-14T03:14:44;6.90;99.90
52471;DHT22;38382;53.160;7.026;2024-02-14T03:17:10;7.00;99.90
52471;DHT22;38382;53.160;7.026;2024-02-14T03:19:36;7.00;99.90
52471;DHT22;38382;53.160;7.026;2024-02-14T03:22:05;6.90;99.90
52471;DHT22;38382;53.160;7.026;2024-02-14T03:24:34;7.10;99.90
52471;DHT22;38382;53.160;7.026;2024-02-14T03:27:03;7.00;99.90
52471;DHT22;38382;53.160;7.026;2024-02-14T03:29:30;7.20;99.90
52471;DHT22;38382;53.160;7.026;2024-02-14T03:31:55;7.00;99.90
52471;DHT22;38382;53.160;7.026;2024-02-14T03:34:24;7.20;99.90
52471;DHT22;38382;53.160;7.026;2024-02-14T03:36:50;7.10;99.90
52471;DHT22;38382;53.160;7.026;2024-02-14T03:39:16;7.20;99.90
52471;DHT22;38382;53.160;7.026;2024-02-14T03:41:42;7.30;99.90
52471;DHT22;38382;53.160;7.026;2024-02-14T03:44:08;7.30;99.90
52471;DHT22;38382;53.160;7.026;2024-02-14T03:46:34;7.20;99.90
52471;DHT22;38382;53.160;7.026;2024-02-14T03:49:01;7.20;99.90
52471;DHT22;38382;53.160;7.026;2024-02-14T03:51:27;7.20;99.90
52471;DHT22;38382;53.160;7.026;2024-02-14T03:53:52;7.30;99.90
52471;DHT22;38382;53.160;7.026;2024-02-14T03:56:18;7.30;99.90
52471;DHT22;38382;53.160;7.026;2024-02-14T03:58:44;7.30;99.90
52471;DHT22;38382;53.160;7.026;2024-02-14T04:01:09;7.40;99.90
52471;DHT22;38382;53.160;7.026;2024-02-14T04:03:35;7.30;99.90
52471;DHT22;38382;53.160;7.026;2024-02-14T04:06:01;7.40;99.90
52471;DHT22;38382;53.160;7.026;2024-02-14T04:08:27;7.40;99.90
52471;DHT22;38382;53.160;7.026;2024-02-14T04:10:54;7.40;99.90
52471;DHT22;38382;53.160;7.026;2024-02-14T04:13:20;7.60;99.90
52471;DHT22;38382;53.160;7.026;2024-02-14T04:15:46;7.40;99.90
52471;DHT22;38382;53.160;7.026;2024-02-14T04:18:15;7.60;99.90
52471;DHT22;38382;53.160;7.026;2024-02-14T04:20:43;7.50;99.90
52471;DHT22;38382;53.160;7.026;2024-02-14T04:23:09;7.50;99.90
52471;DHT22;38382;53.160;7.026;2024-02-14T04:25:35;7.70;99.90
52471;DHT22;38382;53.160;7.026;2024-02-14T04:28:03;7.60;99.90
52471;DHT22;38382;53.160;7.026;2024-02-14T04:30:28;7.70;99.90
52471;DHT22;38382;53.160;7.026;2024-02-14T04:32:55;7.70;99.90
52471;DHT22;38382;53.160;7.026;2024-02-14T04:35:20;7.80;99.90
52471;DHT22;38382;53.160;7.026;2024-02-14T04:37:46;7.70;99.90
52471;DHT22;38382;53.160;7.026;2024-02-14T04:40:13;7.80;99.90
52471;DHT22;38382;53.160;7.026;2024-02-14T04:42:40;7.80;99.90
52471;DHT22;38382;53.160;7.026;2024-02-14T04:45:06;7.90;99.90
52471;DHT22;38382;53.160;7.026;2024-02-14T04:47:32;7.90;99.90
52471;DHT22;38382;53.160;7.026;2024-02-14T04:49:58;7.80;99.90
52471;DHT22;38382;53.160;7.026;2024-02-14T04:52:25;8.00;99.90
52471;DHT22;38382;53.160;7.026;2024-02-14T04:54:51;7.90;99.90
52471;DHT22;38382;53.160;7.026;2024-02-14T04:57:16;7.90;99.90
52471;DHT22;38382;53.160;7.026;2024-02-14T04:59:44;7.90;99.90
52471;DHT22;38382;53.160;7.026;2024-02-14T05:02:10;8.00;99.90
52471;DHT22;38382;53.160;7.026;2024-02-14T05:04:36;8.00;99.90
52471;DHT22;38382;53.160;7.026;2024-02-14T05:07:04;8.10;99.90
52471;DHT22;38382;53.160;7.026;2024-02-14T05:09:29;8.00;99.90
52471;DHT22;38382;53.160;7.026;2024-02-14T05:11:55;8.00;99.90
52471;DHT22;38382;53.160;7.026;2024-02-14T05:14:21;8.20;99.90
52471;DHT22;38382;53.160;7.026;2024-02-14T05:16:47;8.10;99.90
52471;DHT22;38382;53.160;7.026;2024-02-14T05:19:12;8.20;99.90
52471;DHT22;38382;53.160;7.026;2024-02-14T05:21:38;8.20;99.90
52471;DHT22;38382;53.160;7.026;2024-02-14T05:24:05;8.20;99.90
52471;DHT22;38382;53.160;7.026;2024-02-14T05:26:32;8.20;99.90
52471;DHT22;38382;53.160;7.026;2024-02-14T05:28:57;8.30;99.90
52471;DHT22;38382;53.160;7.026;2024-02-14T05:31:24;8.20;99.90
52471;DHT22;38382;53.160;7.026;2024-02-14T05:33:50;8.20;99.90
52471;DHT22;38382;53.160;7.026;2024-02-14T05:36:16;8.40;99.90
52471;DHT22;38382;53.160;7.026;2024-02-14T05:38:42;8.30;99.90
52471;DHT22;38382;53.160;7.026;2024-02-14T05:41:08;8.30;99.90
52471;DHT22;38382;53.160;7.026;2024-02-14T05:43:34;8.40;99.90
52471;DHT22;38382;53.160;7.026;2024-02-14T05:46:00;8.30;99.90
52471;DHT22;38382;53.160;7.026;2024-02-14T05:48:26;8.30;99.90
52471;DHT22;38382;53.160;7.026;2024-02-14T05:50:51;8.40;99.90
52471;DHT22;38382;53.160;7.026;2024-02-14T05:53:17;8.40;99.90
52471;DHT22;38382;53.160;7.026;2024-02-14T05:55:43;8.50;99.90
52471;DHT22;38382;53.160;7.026;2024-02-14T05:58:09;8.40;99.90
52471;DHT22;38382;53.160;7.026;2024-02-14T06:00:35;8.50;99.90
52471;DHT22;38382;53.160;7.026;2024-02-14T06:03:01;8.50;99.90
52471;DHT22;38382;53.160;7.026;2024-02-14T06:05:27;8.40;99.90
52471;DHT22;38382;53.160;7.026;2024-02-14T06:07:53;8.50;99.90
52471;DHT22;38382;53.160;7.026;2024-02-14T06:10:19;8.60;99.90
52471;DHT22;38382;53.160;7.026;2024-02-14T06:12:45;8.80;99.90
52471;DHT22;38382;53.160;7.026;2024-02-14T06:15:13;8.70;99.90
52471;DHT22;38382;53.160;7.026;2024-02-14T06:17:39;8.70;99.90
52471;DHT22;38382;53.160;7.026;2024-02-14T06:20:05;8.60;99.90
52471;DHT22;38382;53.160;7.026;2024-02-14T06:22:33;8.70;99.90
52471;DHT22;38382;53.160;7.026;2024-02-14T06:25:02;8.70;99.90
52471;DHT22;38382;53.160;7.026;2024-02-14T06:27:31;8.60;99.90
52471;DHT22;38382;53.160;7.026;2024-02-14T06:29:58;8.70;99.90
52471;DHT22;38382;53.160;7.026;2024-02-14T06:32:25;8.80;99.90
52471;DHT22;38382;53.160;7.026;2024-02-14T06:34:50;8.80;99.90
52471;DHT22;38382;53.160;7.026;2024-02-14T06:37:16;8.70;99.90
52471;DHT22;38382;53.160;7.026;2024-02-14T06:39:42;8.80;99.90
52471;DHT22;38382;53.160;7.026;2024-02-14T06:42:08;8.70;99.90
52471;DHT22;38382;53.160;7.026;2024-02-14T06:44:33;8.80;99.90
52471;DHT22;38382;53.160;7.026;2024-02-14T06:46:59;8.80;99.90
52471;DHT22;38382;53.160;7.026;2024-02-14T06:49:25;8.80;99.90
52471;DHT22;38382;53.160;7.026;2024-02-14T06:51:50;8.80;99.90
52471;DHT22;38382;53.160;7.026;2024-02-14T06:54:16;8.80;99.90
52471;DHT22;38382;53.160;7.026;2024-02-14T06:56:42;8.90;99.90
52471;DHT22;38382;53.160;7.026;2024-02-14T06:59:08;8.80;99.90
52471;DHT22;38382;53.160;7.026;2024-02-14T07:01:34;8.80;99.90
52471;DHT22;38382;53.160;7.026;2024-02-14T07:03:59;8.90;99.90
52471;DHT22;38382;53.160;7.026;2024-02-14T07:06:27;8.90;99.90
52471;DHT22;38382;53.160;7.026;2024-02-14T07:08:53;8.90;99.90
52471;DHT22;38382;53.160;7.026;2024-02-14T07:11:19;8.90;99.90
52471;DHT22;38382;53.160;7.026;2024-02-14T07:13:44;8.90;99.90
52471;DHT22;38382;53.160;7.026;2024-02-14T07:16:10;9.00;99.90
52471;DHT22;38382;53.160;7.026;2024-02-14T07:18:36;9.10;99.90
52471;DHT22;38382;53.160;7.026;2024-02-14T07:21:01;9.10;99.90
52471;DHT22;38382;53.160;7.026;2024-02-14T07:23:27;9.10;99.90
52471;DHT22;38382;53.160;7.026;2024-02-14T07:25:53;9.20;99.90
52471;DHT22;38382;53.160;7.026;2024-02-14T07:28:19;9.20;99.90
52471;DHT22;38382;53.160;7.026;2024-02-14T07:30:45;9.10;99.90
52471;DHT22;38382;53.160;7.026;2024-02-14T07:33:10;9.20;99.90
52471;DHT22;38382;53.160;7.026;2024-02-14T07:35:39;9.20;99.90
52471;DHT22;38382;53.160;7.026;2024-02-14T07:38:05;9.20;99.90
52471;DHT22;38382;53.160;7.026;2024-02-14T07:40:31;9.30;99.90
52471;DHT22;38382;53.160;7.026;2024-02-14T07:42:57;9.40;99.90
52471;DHT22;38382;53.160;7.026;2024-02-14T07:45:23;9.30;99.90
52471;DHT22;38382;53.160;7.026;2024-02-14T07:47:52;9.30;99.90
52471;DHT22;38382;53.160;7.026;2024-02-14T07:50:18;9.30;99.90
52471;DHT22;38382;53.160;7.026;2024-02-14T07:52:44;9.40;99.90
52471;DHT22;38382;53.160;7.026;2024-02-14T07:55:11;9.30;99.90
52471;DHT22;38382;53.160;7.026;2024-02-14T07:57:40;9.40;99.90
52471;DHT22;38382;53.160;7.026;2024-02-14T08:00:06;9.40;99.90
52471;DHT22;38382;53.160;7.026;2024-02-14T08:02:36;9.50;99.90
52471;DHT22;38382;53.160;7.026;2024-02-14T08:05:02;9.40;99.90
52471;DHT22;38382;53.160;7.026;2024-02-14T08:07:30;9.50;99.90
52471;DHT22;38382;53.160;7.026;2024-02-14T08:09:56;9.60;99.90
52471;DHT22;38382;53.160;7.026;2024-02-14T08:12:22;9.50;99.90
52471;DHT22;38382;53.160;7.026;2024-02-14T08:14:50;9.70;99.90
52471;DHT22;38382;53.160;7.026;2024-02-14T08:17:16;9.70;99.90
52471;DHT22;38382;53.160;7.026;2024-02-14T08:19:41;9.60;99.90
52471;DHT22;38382;53.160;7.026;2024-02-14T08:22:07;9.60;99.90
52471;DHT22;38382;53.160;7.026;2024-02-14T08:24:33;9.60;99.90
52471;DHT22;38382;53.160;7.026;2024-02-14T08:26:59;9.60;99.90
52471;DHT22;38382;53.160;7.026;2024-02-14T08:29:25;9.70;99.90
52471;DHT22;38382;53.160;7.026;2024-02-14T08:31:50;9.60;99.90
52471;DHT22;38382;53.160;7.026;2024-02-14T08:34:16;9.70;99.90
52471;DHT22;38382;53.160;7.026;2024-02-14T08:36:42;9.70;99.90
52471;DHT22;38382;53.160;7.026;2024-02-14T08:39:09;9.70;99.90
52471;DHT22;38382;53.160;7.026;2024-02-14T08:41:39;9.60;99.90
52471;DHT22;38382;53.160;7.026;2024-02-14T08:44:09;9.70;99.90
52471;DHT22;38382;53.160;7.026;2024-02-14T08:46:35;9.70;99.90
52471;DHT22;38382;53.160;7.026;2024-02-14T08:49:01;9.70;99.90
52471;DHT22;38382;53.160;7.026;2024-02-14T08:51:34;9.80;99.90
52471;DHT22;38382;53.160;7.026;2024-02-14T08:54:00;10.00;99.90
52471;DHT22;38382;53.160;7.026;2024-02-14T08:56:31;9.90;99.90
52471;DHT22;38382;53.160;7.026;2024-02-14T08:59:02;10.10;99.90
52471;DHT22;38382;53.160;7.026;2024-02-14T09:01:31;10.00;99.90
52471;DHT22;38382;53.160;7.026;2024-02-14T09:03:57;10.00;99.90
52471;DHT22;38382;53.160;7.026;2024-02-14T09:06:24;10.00;99.90
52471;DHT22;38382;53.160;7.026;2024-02-14T09:08:52;10.10;99.90
52471;DHT22;38382;53.160;7.026;2024-02-14T09:11:19;10.20;99.90
52471;DHT22;38382;53.160;7.026;2024-02-14T09:13:45;10.10;99.90
52471;DHT22;38382;53.160;7.026;2024-02-14T09:16:13;10.10;99.90
52471;DHT22;38382;53.160;7.026;2024-02-14T09:18:41;10.20;99.90
52471;DHT22;38382;53.160;7.026;2024-02-14T09:21:07;10.20;99.90
52471;DHT22;38382;53.160;7.026;2024-02-14T09:23:33;10.20;99.90
52471;DHT22;38382;53.160;7.026;2024-02-14T09:25:59;10.30;99.90
52471;DHT22;38382;53.160;7.026;2024-02-14T09:28:24;10.30;99.90
52471;DHT22;38382;53.160;7.026;2024-02-14T09:30:53;10.40;99.90
52471;DHT22;38382;53.160;7.026;2024-02-14T09:33:20;10.50;99.90
52471;DHT22;38382;53.160;7.026;2024-02-14T09:35:45;10.50;99.90
52471;DHT22;38382;53.160;7.026;2024-02-14T09:38:13;10.50;99.90
52471;DHT22;38382;53.160;7.026;2024-02-14T09:40:42;10.50;99.90
52471;DHT22;38382;53.160;7.026;2024-02-14T09:43:28;10.50;99.90
52471;DHT22;38382;53.160;7.026;2024-02-14T09:45:58;10.60;99.90
52471;DHT22;38382;53.160;7.026;2024-02-14T09:48:24;10.70;99.90
52471;DHT22;38382;53.160;7.026;2024-02-14T09:50:52;10.70;99.90
52471;DHT22;38382;53.160;7.026;2024-02-14T09:53:19;10.60;99.90
52471;DHT22;38382;53.160;7.026;2024-02-14T09:55:49;10.60;99.90
52471;DHT22;38382;53.160;7.026;2024-02-14T09:58:17;10.70;99.90
52471;DHT22;38382;53.160;7.026;2024-02-14T10:00:43;10.60;99.90
52471;DHT22;38382;53.160;7.026;2024-02-14T10:03:09;10.60;99.90
52471;DHT22;38382;53.160;7.026;2024-02-14T10:05:36;10.70;99.90
52471;DHT22;38382;53.160;7.026;2024-02-14T10:08:02;10.70;99.90
52471;DHT22;38382;53.160;7.026;2024-02-14T10:10:32;10.70;99.90
52471;DHT22;38382;53.160;7.026;2024-02-14T10:13:03;10.90;99.90
52471;DHT22;38382;53.160;7.026;2024-02-14T10:15:29;10.80;99.90
52471;DHT22;38382;53.160;7.026;2024-02-14T10:17:58;10.70;99.90
52471;DHT22;38382;53.160;7.026;2024-02-14T10:20:24;10.80;99.90
52471;DHT22;38382;53.160;7.026;2024-02-14T10:22:50;10.70;99.90
52471;DHT22;38382;53.160;7.026;2024-02-14T10:25:16;10.80;99.90
52471;DHT22;38382;53.160;7.026;2024-02-14T10:27:44;10.80;99.90
52471;DHT22;38382;53.160;7.026;2024-02-14T10:30:12;10.80;99.90
52471;DHT22;38382;53.160;7.026;2024-02-14T10:32:40;10.80;99.90
52471;DHT22;38382;53.160;7.026;2024-02-14T10:35:07;10.80;99.90
52471;DHT22;38382;53.160;7.026;2024-02-14T10:37:37;10.60;99.90
52471;DHT22;38382;53.160;7.026;2024-02-14T10:40:04;10.60;99.90
52471;DHT22;38382;53.160;7.026;2024-02-14T10:42:31;10.60;99.90
52471;DHT22;38382;53.160;7.026;2024-02-14T10:44:56;10.70;99.90
52471;DHT22;38382;53.160;7.026;2024-02-14T10:47:25;10.70;99.90
52471;DHT22;38382;53.160;7.026;2024-02-14T10:49:54;10.60;99.90
52471;DHT22;38382;53.160;7.026;2024-02-14T10:52:21;10.70;99.90
52471;DHT22;38382;53.160;7.026;2024-02-14T10:54:56;10.70;99.90
52471;DHT22;38382;53.160;7.026;2024-02-14T10:57:24;10.70;99.90
52471;DHT22;38382;53.160;7.026;2024-02-14T10:59:51;10.60;99.90
52471;DHT22;38382;53.160;7.026;2024-02-14T11:02:17;10.80;99.90
52471;DHT22;38382;53.160;7.026;2024-02-14T11:04:45;10.60;99.90
52471;DHT22;38382;53.160;7.026;2024-02-14T11:07:11;10.70;99.90
52471;DHT22;38382;53.160;7.026;2024-02-14T11:09:39;10.80;99.90
52471;DHT22;38382;53.160;7.026;2024-02-14T11:12:10;10.70;99.90
52471;DHT22;38382;53.160;7.026;2024-02-14T11:14:36;10.70;99.90
52471;DHT22;38382;53.160;7.026;2024-02-14T11:17:12;10.70;99.90
52471;DHT22;38382;53.160;7.026;2024-02-14T11:19:38;10.70;99.90
52471;DHT22;38382;53.160;7.026;2024-02-14T11:22:13;10.80;99.90
52471;DHT22;38382;53.160;7.026;2024-02-14T11:24:48;10.80;99.90
52471;DHT22;38382;53.160;7.026;2024-02-14T11:27:17;10.80;99.90
52471;DHT22;38382;53.160;7.026;2024-02-14T11:29:52;10.90;99.90
52471;DHT22;38382;53.160;7.026;2024-02-14T11:32:18;10.70;99.90
52471;DHT22;38382;53.160;7.026;2024-02-14T11:34:53;10.80;99.90
52471;DHT22;38382;53.160;7.026;2024-02-14T11:37:20;10.80;99.90
52471;DHT22;38382;53.160;7.026;2024-02-14T11:39:49;10.90;99.90
52471;DHT22;38382;53.160;7.026;2024-02-14T11:42:15;11.00;99.90
52471;DHT22;38382;53.160;7.026;2024-02-14T11:44:40;10.90;99.90
52471;DHT22;38382;53.160;7.026;2024-02-14T11:47:09;10.90;99.90
52471;DHT22;38382;53.160;7.026;2024-02-14T11:49:36;11.00;99.90
52471;DHT22;38382;53.160;7.026;2024-02-14T11:52:02;11.00;99.90
52471;DHT22;38382;53.160;7.026;2024-02-14T11:54:30;11.20;99.90
52471;DHT22;38382;53.160;7.026;2024-02-14T11:56:55;11.20;99.90
52471;DHT22;38382;53.160;7.026;2024-02-14T11:59:21;11.30;99.90
52471;DHT22;38382;53.160;7.026;2024-02-14T12:01:48;11.30;99.90
52471;DHT22;38382;53.160;7.026;2024-02-14T12:04:17;11.30;99.90
52471;DHT22;38382;53.160;7.026;2024-02-14T12:06:44;11.20;99.90
52471;DHT22;38382;53.160;7.026;2024-02-14T12:09:11;11.30;99.90
52471;DHT22;38382;53.160;7.026;2024-02-14T12:11:39;11.30;99.90
52471;DHT22;38382;53.160;7.026;2024-02-14T12:14:09;11.20;99.90
52471;DHT22;38382;53.160;7.026;2024-02-14T12:16:36;11.30;99.90
52471;DHT22;38382;53.160;7.026;2024-02-14T12:19:16;11.40;99.90
52471;DHT22;38382;53.160;7.026;2024-02-14T12:21:42;11.30;99.90
52471;DHT22;38382;53.160;7.026;2024-02-14T12:24:12;11.40;99.90
52471;DHT22;38382;53.160;7.026;2024-02-14T12:26:41;11.40;99.90
52471;DHT22;38382;53.160;7.026;2024-02-14T12:29:11;11.40;99.90
52471;DHT22;38382;53.160;7.026;2024-02-14T12:31:38;11.30;99.90
52471;DHT22;38382;53.160;7.026;2024-02-14T12:34:05;11.40;99.90
52471;DHT22;38382;53.160;7.026;2024-02-14T12:36:33;11.30;99.90
52471;DHT22;38382;53.160;7.026;2024-02-14T12:38:59;11.40;99.90
52471;DHT22;38382;53.160;7.026;2024-02-14T12:41:28;11.50;99.90
52471;DHT22;38382;53.160;7.026;2024-02-14T12:43:55;11.50;99.90
52471;DHT22;38382;53.160;7.026;2024-02-14T12:46:21;11.40;99.90
52471;DHT22;38382;53.160;7.026;2024-02-14T12:48:47;11.60;99.90
52471;DHT22;38382;53.160;7.026;2024-02-14T12:51:14;11.40;99.90
52471;DHT22;38382;53.160;7.026;2024-02-14T12:53:40;11.50;99.90
52471;DHT22;38382;53.160;7.026;2024-02-14T12:56:06;11.60;99.90
52471;DHT22;38382;53.160;7.026;2024-02-14T12:58:32;11.50;99.90
52471;DHT22;38382;53.160;7.026;2024-02-14T13:00:58;11.50;99.90
52471;DHT22;38382;53.160;7.026;2024-02-14T13:03:25;11.50;99.90
52471;DHT22;38382;53.160;7.026;2024-02-14T13:05:51;11.40;99.90
52471;DHT22;38382;53.160;7.026;2024-02-14T13:08:20;11.50;99.90
52471;DHT22;38382;53.160;7.026;2024-02-14T13:10:46;11.40;99.90
52471;DHT22;38382;53.160;7.026;2024-02-14T13:13:12;11.50;99.90
52471;DHT22;38382;53.160;7.026;2024-02-14T13:15:39;11.50;99.90
52471;DHT22;38382;53.160;7.026;2024-02-14T13:18:06;11.50;99.90
52471;DHT22;38382;53.160;7.026;2024-02-14T13:20:32;11.40;99.90
52471;DHT22;38382;53.160;7.026;2024-02-14T13:22:57;11.50;99.90
52471;DHT22;38382;53.160;7.026;2024-02-14T13:25:23;11.40;99.90
52471;DHT22;38382;53.160;7.026;2024-02-14T13:27:49;11.40;99.90
52471;DHT22;38382;53.160;7.026;2024-02-14T13:30:15;11.50;99.90
52471;DHT22;38382;53.160;7.026;2024-02-14T13:32:41;11.50;99.90
52471;DHT22;38382;53.160;7.026;2024-02-14T13:35:07;11.40;99.90
52471;DHT22;38382;53.160;7.026;2024-02-14T13:37:34;11.50;99.90
52471;DHT22;38382;53.160;7.026;2024-02-14T13:40:01;11.40;99.90
52471;DHT22;38382;53.160;7.026;2024-02-14T13:42:30;11.40;99.90
52471;DHT22;38382;53.160;7.026;2024-02-14T13:44:55;11.40;99.90
52471;DHT22;38382;53.160;7.026;2024-02-14T13:47:21;11.50;99.90
52471;DHT22;38382;53.160;7.026;2024-02-14T13:49:48;11.30;99.90
52471;DHT22;38382;53.160;7.026;2024-02-14T13:52:14;11.40;99.90
52471;DHT22;38382;53.160;7.026;2024-02-14T13:54:41;11.40;99.90
52471;DHT22;38382;53.160;7.026;2024-02-14T13:57:07;11.30;99.90
52471;DHT22;38382;53.160;7.026;2024-02-14T13:59:33;11.40;99.90
52471;DHT22;38382;53.160;7.026;2024-02-14T14:01:58;11.30;99.90
52471;DHT22;38382;53.160;7.026;2024-02-14T14:04:24;11.40;99.90
52471;DHT22;38382;53.160;7.026;2024-02-14T14:06:51;11.30;99.90
52471;DHT22;38382;53.160;7.026;2024-02-14T14:09:17;11.40;99.90
52471;DHT22;38382;53.160;7.026;2024-02-14T14:11:42;11.40;99.90
52471;DHT22;38382;53.160;7.026;2024-02-14T14:14:09;11.30;99.90
52471;DHT22;38382;53.160;7.026;2024-02-14T14:16:41;11.40;99.90
52471;DHT22;38382;53.160;7.026;2024-02-14T14:19:07;11.30;99.90
52471;DHT22;38382;53.160;7.026;2024-02-14T14:21:33;11.40;99.90
52471;DHT22;38382;53.160;7.026;2024-02-14T14:23:59;11.30;99.90
52471;DHT22;38382;53.160;7.026;2024-02-14T14:26:25;11.40;99.90
52471;DHT22;38382;53.160;7.026;2024-02-14T14:28:50;11.40;99.90
52471;DHT22;38382;53.160;7.026;2024-02-14T14:31:17;11.40;99.90
52471;DHT22;38382;53.160;7.026;2024-02-14T14:33:43;11.30;99.90
52471;DHT22;38382;53.160;7.026;2024-02-14T14:36:09;11.40;99.90
52471;DHT22;38382;53.160;7.026;2024-02-14T14:38:35;11.40;99.90
52471;DHT22;38382;53.160;7.026;2024-02-14T14:41:00;11.40;99.90
52471;DHT22;38382;53.160;7.026;2024-02-14T14:43:26;11.30;99.90
52471;DHT22;38382;53.160;7.026;2024-02-14T14:45:53;11.40;99.90
52471;DHT22;38382;53.160;7.026;2024-02-14T14:48:19;11.30;99.90
52471;DHT22;38382;53.160;7.026;2024-02-14T14:50:45;11.30;99.90
52471;DHT22;38382;53.160;7.026;2024-02-14T14:53:11;11.40;99.90
52471;DHT22;38382;53.160;7.026;2024-02-14T14:55:51;11.40;99.90
52471;DHT22;38382;53.160;7.026;2024-02-14T14:58:17;11.40;99.90
52471;DHT22;38382;53.160;7.026;2024-02-14T15:00:43;11.40;99.90
52471;DHT22;38382;53.160;7.026;2024-02-14T15:03:09;11.50;99.90
52471;DHT22;38382;53.160;7.026;2024-02-14T15:05:37;11.40;99.90
52471;DHT22;38382;53.160;7.026;2024-02-14T15:08:07;11.50;99.90
52471;DHT22;38382;53.160;7.026;2024-02-14T15:10:36;11.60;99.90
52471;DHT22;38382;53.160;7.026;2024-02-14T15:13:06;11.50;99.90
52471;DHT22;38382;53.160;7.026;2024-02-14T15:15:34;11.50;99.90
52471;DHT22;38382;53.160;7.026;2024-02-14T15:18:00;11.40;99.90
52471;DHT22;38382;53.160;7.026;2024-02-14T15:20:25;11.40;99.90
52471;DHT22;38382;53.160;7.026;2024-02-14T15:22:51;11.40;99.90
52471;DHT22;38382;53.160;7.026;2024-02-14T15:25:17;11.50;99.90
52471;DHT22;38382;53.160;7.026;2024-02-14T15:27:43;11.50;99.90
52471;DHT22;38382;53.160;7.026;2024-02-14T15:30:23;11.40;99.90
52471;DHT22;38382;53.160;7.026;2024-02-14T15:33:08;11.40;99.90
52471;DHT22;38382;53.160;7.026;2024-02-14T15:35:53;11.50;99.90
52471;DHT22;38382;53.160;7.026;2024-02-14T15:38:20;11.30;99.90